Time;durP1;ratioP1;P1;durP2;ratioP2;P2;SDS_P1;SDS_P2;PMS_P1;PMS_P2;Temp;Humidity;BMP_temperature;BMP_pressure;BME280_temperature;BME280_humidity;BME280_pressure;Samples;Min_cycle;Max_cycle;Signal;HPM_P1;HPM_P2
2022/09/14 00:01:58;;;;;;;3.60;3.40;;;;;;;23.04;35.57;94993.69;6159765;28;104941;-80
2022/09/14 00:05:01;;;;;;;3.93;3.70;;;;;;;23.04;35.50;94991.03;6165551;28;104850;-79
2022/09/14 00:08:05;;;;;;;3.23;3.03;;;;;;;23.01;35.59;94995.09;6165915;28;103367;-80
2022/09/14 00:11:11;;;;;;;3.87;3.50;;;;;;;23.04;35.52;94991.81;6156967;28;103646;-81
2022/09/14 00:14:16;;;;;;;3.60;3.30;;;;;;;23.04;35.81;94999.03;6157676;28;103537;-81
2022/09/14 00:17:20;;;;;;;3.57;3.37;;;;;;;23.01;35.97;94993.19;6165843;28;103341;-80
2022/09/14 00:20:23;;;;;;;3.50;3.30;;;;;;;23.01;35.44;94990.53;6165769;28;103598;-79
2022/09/14 00:23:26;;;;;;;3.73;3.20;;;;;;;23.00;35.85;94990.84;6165927;28;103390;-80
2022/09/14 00:26:30;;;;;;;3.50;3.30;;;;;;;22.99;36.03;94997.28;6155192;28;103503;-80
2022/09/14 00:29:35;;;;;;;3.13;2.93;;;;;;;23.02;36.16;94999.34;6166378;28;103025;-80
2022/09/14 00:32:38;;;;;;;5.73;3.60;;;;;;;22.98;36.15;94996.50;6164836;28;103215;-79
2022/09/14 00:35:42;;;;;;;3.63;3.33;;;;;;;22.97;36.15;94988.81;6161240;28;103406;-78
2022/09/14 00:38:46;;;;;;;3.80;3.43;;;;;;;22.96;35.65;94987.22;6161595;28;103135;-78
2022/09/14 00:41:51;;;;;;;3.90;3.47;;;;;;;22.94;35.82;94994.78;6164535;28;104234;-79
2022/09/14 00:45:15;;;;;;;3.87;3.57;;;;;;;22.95;36.35;94991.78;6165417;28;103740;-78
2022/09/14 00:48:19;;;;;;;3.53;3.33;;;;;;;22.96;36.02;95003.25;6156714;28;103039;-78
2022/09/14 00:51:22;;;;;;;3.60;3.30;;;;;;;22.93;35.83;94998.53;6163538;28;104200;-79
2022/09/14 00:54:26;;;;;;;3.87;3.57;;;;;;;22.94;35.75;95000.88;6164470;28;103317;-78
2022/09/14 00:57:34;;;;;;;3.43;3.13;;;;;;;22.96;36.22;95005.91;6164763;28;103142;-79
2022/09/14 01:00:39;;;;;;;3.53;3.33;;;;;;;22.94;35.91;95000.88;6157870;28;103442;-80
2022/09/14 01:03:42;;;;;;;3.70;3.40;;;;;;;22.92;36.10;95007.66;6163787;28;103252;-79
2022/09/14 01:06:53;;;;;;;3.67;3.47;;;;;;;22.87;35.87;95003.25;6163438;28;103147;-80
2022/09/14 01:10:09;;;;;;;3.13;2.93;;;;;;;22.86;35.90;95008.91;6157426;28;103206;-78
2022/09/14 01:13:22;;;;;;;3.53;3.00;;;;;;;22.86;36.27;95008.91;6164114;28;103404;-80
2022/09/14 01:16:34;;;;;;;3.30;3.10;;;;;;;22.80;35.89;95007.47;6164597;28;103037;-76
2022/09/14 01:19:53;;;;;;;2.97;2.77;;;;;;;22.82;36.17;95011.38;6162721;28;103313;-78
2022/09/14 01:23:05;;;;;;;3.00;2.67;;;;;;;22.78;36.29;95012.31;6157169;28;106307;-79
2022/09/14 01:26:44;;;;;;;2.80;2.60;;;;;;;22.76;35.95;95006.50;6165007;28;103769;-80
2022/09/14 01:30:01;;;;;;;3.00;2.80;;;;;;;22.75;36.13;95010.28;6141573;28;103511;-78
2022/09/14 01:33:10;;;;;;;3.20;2.30;;;;;;;22.74;36.44;95011.38;6157155;28;103795;-76
2022/09/14 01:36:16;;;;;;;3.00;2.60;;;;;;;22.70;36.29;95012.00;6165092;28;106912;-77
2022/09/14 01:39:21;;;;;;;3.13;2.63;;;;;;;22.69;36.08;95007.75;6164441;28;105447;-77
2022/09/14 01:42:28;;;;;;;2.80;2.60;;;;;;;22.69;36.18;95001.63;6163632;28;104557;-79
2022/09/14 01:45:37;;;;;;;3.13;2.93;;;;;;;22.72;35.74;95002.91;6153589;28;103579;-78
2022/09/14 01:48:44;;;;;;;2.73;2.53;;;;;;;22.73;35.95;95005.25;6163408;28;103410;-79
2022/09/14 01:51:50;;;;;;;3.07;2.73;;;;;;;22.68;36.02;94994.72;6165203;28;105396;-74
2022/09/14 01:54:57;;;;;;;2.90;2.70;;;;;;;22.68;36.48;95002.72;6161110;28;103106;-76
2022/09/14 01:58:06;;;;;;;3.03;2.83;;;;;;;22.74;36.26;95014.03;6160743;28;104116;-75
2022/09/14 02:01:17;;;;;;;2.93;2.63;;;;;;;22.67;36.33;95012.59;6164433;28;103534;-76
2022/09/14 02:04:24;;;;;;;3.13;2.93;;;;;;;22.65;36.39;95012.13;6164408;28;103859;-75
2022/09/14 02:07:28;;;;;;;3.10;2.90;;;;;;;22.60;36.27;95000.81;6157548;28;104651;-74
2022/09/14 02:10:33;;;;;;;3.27;2.43;;;;;;;22.63;36.22;95006.31;6164773;28;105615;-75
2022/09/14 02:13:37;;;;;;;3.10;2.90;;;;;;;22.60;36.23;95001.59;6163814;28;102896;-75
2022/09/14 02:16:45;;;;;;;2.80;2.60;;;;;;;22.59;36.18;95004.59;6163751;28;104112;-75
2022/09/14 02:19:53;;;;;;;2.93;2.73;;;;;;;22.48;36.57;94996.03;6156529;28;103455;-75
2022/09/14 02:22:57;;;;;;;3.13;2.83;;;;;;;22.51;36.33;95014.09;6160217;28;103123;-75
2022/09/14 02:26:01;;;;;;;2.80;2.60;;;;;;;22.55;36.30;95004.38;6163897;28;103104;-76
2022/09/14 02:29:05;;;;;;;3.37;3.17;;;;;;;22.56;36.59;95002.50;6160299;28;102990;-75
2022/09/14 02:32:21;;;;;;;3.33;3.13;;;;;;;22.54;36.67;95002.81;6160752;28;103883;-75
2022/09/14 02:35:32;;;;;;;3.40;3.10;;;;;;;22.53;36.66;94998.59;6161466;28;103259;-74
2022/09/14 02:38:41;;;;;;;3.03;2.83;;;;;;;22.54;36.67;94999.38;6163678;28;103566;-74
2022/09/14 02:41:51;;;;;;;4.23;2.80;;;;;;;22.54;36.25;95002.03;6156300;28;103192;-75
2022/09/14 02:45:03;;;;;;;4.83;3.03;;;;;;;22.51;36.28;95008.75;6163233;28;103195;-75
2022/09/14 02:48:16;;;;;;;3.10;2.90;;;;;;;22.48;36.79;95014.69;6162906;28;103004;-75
2022/09/14 02:51:31;;;;;;;3.70;3.00;;;;;;;22.47;36.63;95015.81;6160229;28;103377;-74
2022/09/14 02:54:39;;;;;;;3.40;2.90;;;;;;;22.51;36.88;95008.75;6158702;28;104232;-74
2022/09/14 02:58:04;;;;;;;3.50;3.20;;;;;;;22.52;36.79;95013.00;6163842;28;103253;-75
2022/09/14 03:01:10;;;;;;;3.30;3.00;;;;;;;22.48;36.27;95020.03;6163743;28;105549;-75
2022/09/14 03:04:15;;;;;;;3.13;2.93;;;;;;;22.50;36.84;95009.06;6155319;28;103016;-75
2022/09/14 03:07:18;;;;;;;3.40;3.20;;;;;;;22.55;36.47;94996.38;6162862;28;103057;-76
2022/09/14 03:10:21;;;;;;;3.30;3.10;;;;;;;22.63;36.55;95008.19;6162868;28;105300;-75
2022/09/14 03:13:25;;;;;;;4.40;4.10;;;;;;;22.68;36.95;95019.53;6163755;28;103132;-77
2022/09/14 03:16:28;;;;;;;4.20;3.90;;;;;;;22.67;36.58;95007.25;6130870;28;102716;-77
2022/09/14 03:19:33;;;;;;;3.97;3.27;;;;;;;22.67;36.79;95019.81;6138523;28;103137;-76
2022/09/14 03:22:36;;;;;;;4.60;4.23;;;;;;;22.59;36.74;95023.25;6147281;28;106378;-75
2022/09/14 03:25:40;;;;;;;4.00;3.70;;;;;;;22.56;36.79;95013.97;6158234;28;103238;-76
2022/09/14 03:28:44;;;;;;;3.80;3.50;;;;;;;22.55;36.91;95012.41;6158574;28;104380;-75
2022/09/14 03:31:47;;;;;;;4.13;3.70;;;;;;;22.54;36.71;95010.03;6165696;28;104936;-75
2022/09/14 03:34:52;;;;;;;4.40;3.87;;;;;;;22.57;36.68;95012.91;6166015;28;103116;-75
2022/09/14 03:37:56;;;;;;;4.73;3.90;;;;;;;22.52;37.29;95013.00;6158630;28;104213;-76
2022/09/14 03:40:59;;;;;;;4.73;4.10;;;;;;;22.53;37.33;95022.59;6166606;28;103495;-76
2022/09/14 03:44:02;;;;;;;4.37;3.97;;;;;;;22.62;36.78;95009.28;6165714;28;104426;-76
2022/09/14 03:47:07;;;;;;;5.83;3.97;;;;;;;22.64;37.14;95015.88;6165287;28;103398;-75
2022/09/14 03:50:13;;;;;;;4.20;3.80;;;;;;;22.59;37.70;95008.03;6154225;28;103351;-75
2022/09/14 03:53:16;;;;;;;4.80;4.20;;;;;;;22.63;37.94;95011.66;6161704;28;103229;-77
2022/09/14 03:56:21;;;;;;;5.37;3.87;;;;;;;22.67;37.58;95009.94;6154209;28;103104;-76
2022/09/14 03:59:24;;;;;;;4.90;3.97;;;;;;;22.66;38.00;95019.03;6153190;28;103115;-76
2022/09/14 04:02:28;;;;;;;4.90;3.40;;;;;;;22.74;37.38;95019.38;6157435;28;103095;-75
2022/09/14 04:05:33;;;;;;;6.07;3.63;;;;;;;22.79;39.73;95020.00;6153253;28;103052;-75
2022/09/14 04:08:38;;;;;;;3.73;3.43;;;;;;;22.81;38.74;95014.38;6160562;28;103945;-75
2022/09/14 04:11:42;;;;;;;6.23;3.60;;;;;;;22.87;39.65;95018.47;6151794;28;103144;-74
2022/09/14 04:14:45;;;;;;;4.83;4.03;;;;;;;22.91;38.00;95019.41;6163442;28;105231;-76
2022/09/14 04:17:48;;;;;;;6.93;4.73;;;;;;;22.95;37.92;95028.38;6163028;28;103110;-74
2022/09/14 04:20:58;;;;;;;7.37;4.43;;;;;;;22.89;38.33;95013.59;6160667;28;103911;-73
2022/09/14 04:24:12;;;;;;;4.47;4.17;;;;;;;22.56;38.36;95013.97;6160188;28;103502;-74
2022/09/14 04:31:41;;;;;;;4.40;4.10;;;;;;;22.61;38.30;95013.84;6164346;28;102964;-73
2022/09/14 04:34:49;;;;;;;5.30;4.73;;;;;;;22.65;38.11;95009.44;6152443;28;103038;-73
2022/09/14 04:37:55;;;;;;;4.20;3.90;;;;;;;22.60;37.97;95014.94;6165047;28;103141;-73
2022/09/14 04:40:59;;;;;;;4.43;4.03;;;;;;;22.61;38.01;95013.84;6165199;28;103026;-74
2022/09/14 04:44:02;;;;;;;4.60;4.20;;;;;;;22.59;37.88;95021.38;6164563;28;103126;-75
2022/09/14 04:47:05;;;;;;;9.27;6.10;;;;;;;22.57;37.85;95028.91;6157839;28;106512;-73
2022/09/14 04:50:09;;;;;;;5.60;5.20;;;;;;;22.62;38.17;95030.63;6164124;28;103193;-74
2022/09/14 04:53:14;;;;;;;6.90;6.20;;;;;;;22.61;38.38;95032.50;6164534;28;103062;-74
2022/09/14 04:56:18;;;;;;;8.00;6.10;;;;;;;22.24;38.54;95024.97;6162851;28;104406;-73
2022/09/14 04:59:21;;;;;;;7.90;6.37;;;;;;;22.39;38.95;95033.34;6160586;28;103257;-74
2022/09/14 05:02:25;;;;;;;5.77;5.27;;;;;;;22.50;38.20;95036.50;6165951;28;102926;-75
2022/09/14 05:05:28;;;;;;;7.30;5.80;;;;;;;22.51;38.30;95038.09;6165807;28;103078;-73
2022/09/14 05:08:35;;;;;;;6.47;5.30;;;;;;;22.55;38.65;95052.41;6159367;28;105525;-74
2022/09/14 05:11:38;;;;;;;6.93;6.40;;;;;;;22.57;38.81;95060.13;6166082;28;103356;-74
2022/09/14 05:14:41;;;;;;;8.23;7.53;;;;;;;22.62;38.31;95058.09;6166018;28;104901;-74
2022/09/14 05:17:44;;;;;;;10.60;7.63;;;;;;;22.60;38.70;95060.28;6165132;28;103422;-74
2022/09/14 05:20:47;;;;;;;9.00;8.10;;;;;;;22.65;38.80;95048.69;6157513;28;102999;-74
2022/09/14 05:23:56;;;;;;;9.57;8.67;;;;;;;22.63;39.02;95054.31;6165397;28;103401;-74
2022/09/14 05:26:59;;;;;;;9.80;8.80;;;;;;;22.64;39.31;95063.91;6165698;28;104380;-75
2022/09/14 05:30:04;;;;;;;8.80;7.90;;;;;;;22.64;39.47;95066.56;6165578;28;106227;-76
2022/09/14 05:33:08;;;;;;;9.90;7.80;;;;;;;22.65;39.40;95070.81;6159124;28;106377;-74
2022/09/14 05:36:11;;;;;;;10.77;8.87;;;;;;;22.68;39.91;95078.22;6165375;28;105350;-73
2022/09/14 05:39:16;;;;;;;11.50;9.10;;;;;;;22.70;39.55;95070.69;6164609;28;103239;-74
2022/09/14 05:42:25;;;;;;;6.80;6.30;;;;;;;22.73;39.80;95079.94;6157784;28;104532;-74
2022/09/14 05:45:28;;;;;;;10.07;7.20;;;;;;;22.73;40.32;95077.28;6164037;28;103438;-75
2022/09/14 05:48:31;;;;;;;8.97;6.63;;;;;;;22.74;39.26;95078.06;6165045;28;103318;-74
2022/09/14 05:51:35;;;;;;;12.70;7.60;;;;;;;22.80;39.67;95072.28;6163810;28;103439;-74
2022/09/14 05:54:40;;;;;;;10.73;9.17;;;;;;;22.85;39.59;95080.16;6156462;28;103577;-73
2022/09/14 05:57:43;;;;;;;12.13;10.00;;;;;;;22.92;39.13;95083.16;6164645;28;103634;-74
2022/09/14 06:00:46;;;;;;;8.77;7.93;;;;;;;22.97;39.46;95084.88;6165242;28;106029;-74
2022/09/14 06:03:50;;;;;;;7.07;6.37;;;;;;;23.04;38.66;95084.44;6164443;28;103785;-72
2022/09/14 06:06:54;;;;;;;6.83;6.23;;;;;;;23.11;38.83;95087.44;6156689;28;103863;-72
2022/09/14 06:10:19;;;;;;;7.27;6.67;;;;;;;23.17;39.21;95089.63;6164705;28;102745;-73
2022/09/14 06:13:22;;;;;;;7.00;6.30;;;;;;;23.23;39.22;95088.41;6164119;28;103135;-73
2022/09/14 06:16:27;;;;;;;6.10;5.50;;;;;;;23.27;39.00;95084.00;6156950;28;104104;-72
2022/09/14 06:19:30;;;;;;;7.43;5.60;;;;;;;23.33;39.25;95086.56;6165597;28;106887;-74
2022/09/14 06:22:34;;;;;;;9.00;6.13;;;;;;;23.41;40.11;95088.47;6164649;28;103938;-75
2022/09/14 06:25:38;;;;;;;5.83;5.37;;;;;;;23.52;40.12;95081.69;6165744;28;103404;-77
2022/09/14 06:28:42;;;;;;;7.33;6.17;;;;;;;23.52;39.82;95079.03;6157186;28;103462;-76
2022/09/14 06:31:45;;;;;;;5.50;4.97;;;;;;;23.56;39.19;95090.69;6165521;28;105584;-75
2022/09/14 06:34:48;;;;;;;12.53;5.83;;;;;;;23.61;38.93;95079.81;6163713;28;103052;-74
2022/09/14 06:37:53;;;;;;;5.33;4.83;;;;;;;23.63;39.01;95072.28;6164105;28;103690;-75
2022/09/14 06:40:59;;;;;;;5.87;5.20;;;;;;;23.71;40.47;95076.84;6156277;28;103275;-75
2022/09/14 06:44:03;;;;;;;5.70;5.27;;;;;;;23.75;40.34;95075.13;6163885;28;103236;-75
2022/09/14 06:47:06;;;;;;;5.83;5.33;;;;;;;23.84;39.81;95069.75;6164555;28;103330;-75
2022/09/14 06:50:10;;;;;;;5.27;4.80;;;;;;;23.84;39.45;95075.88;6158895;28;103247;-76
2022/09/14 06:53:13;;;;;;;5.50;5.00;;;;;;;23.88;38.86;95076.84;6161399;28;103838;-75
2022/09/14 06:56:18;;;;;;;5.40;4.70;;;;;;;23.90;38.94;95082.66;6164228;28;102798;-74
2022/09/14 06:59:21;;;;;;;4.47;4.07;;;;;;;23.95;38.79;95083.59;6163098;28;103122;-75
2022/09/14 07:02:24;;;;;;;4.63;4.23;;;;;;;23.99;39.25;95079.16;6155826;28;103258;-74
2022/09/14 07:05:27;;;;;;;5.67;4.27;;;;;;;24.00;39.13;95075.41;6162551;28;103081;-75
2022/09/14 07:08:31;;;;;;;5.17;4.87;;;;;;;24.02;38.91;95075.88;6163699;28;106174;-75
2022/09/14 07:11:36;;;;;;;4.93;4.43;;;;;;;24.07;38.88;95075.75;6164266;28;103282;-77
2022/09/14 07:14:39;;;;;;;4.53;4.23;;;;;;;24.09;38.98;95074.31;6157148;28;104315;-76
2022/09/14 07:17:45;;;;;;;4.70;3.90;;;;;;;24.13;38.92;95074.47;6163447;28;103250;-75
2022/09/14 07:20:48;;;;;;;5.20;4.77;;;;;;;24.15;38.92;95072.25;6163444;28;103281;-75
2022/09/14 07:23:52;;;;;;;4.77;4.27;;;;;;;24.14;38.96;95071.47;6159712;28;103972;-76
2022/09/14 07:26:56;;;;;;;5.10;4.20;;;;;;;24.15;38.62;95067.69;6159808;28;103362;-75
2022/09/14 07:30:00;;;;;;;8.97;4.60;;;;;;;24.17;38.91;95060.13;6163246;28;103232;-76
2022/09/14 07:33:04;;;;;;;4.57;4.17;;;;;;;24.19;38.59;95065.97;6163291;28;103051;-77
2022/09/14 07:36:09;;;;;;;5.37;4.17;;;;;;;24.19;38.74;95065.16;6156209;28;106628;-74
2022/09/14 07:39:14;;;;;;;6.60;4.50;;;;;;;24.20;38.33;95064.09;6163172;28;103048;-77
2022/09/14 07:42:19;;;;;;;5.53;4.17;;;;;;;24.25;38.12;95060.44;6163299;28;104202;-76
2022/09/14 07:45:22;;;;;;;9.53;4.20;;;;;;;24.28;37.98;95057.13;6163462;28;104453;-74
2022/09/14 07:48:25;;;;;;;4.57;4.13;;;;;;;24.29;38.07;95056.03;6154930;28;104838;-74
2022/09/14 07:51:29;;;;;;;5.63;4.40;;;;;;;24.33;38.29;95063.09;6162924;28;103015;-77
2022/09/14 07:54:34;;;;;;;5.73;4.10;;;;;;;24.36;38.07;95065.13;6162232;28;106623;-74
2022/09/14 07:57:39;;;;;;;4.77;4.37;;;;;;;24.39;38.01;95063.72;6161995;28;105030;-75
2022/09/14 08:00:59;;;;;;;4.30;3.90;;;;;;;24.43;37.93;95064.63;6159119;28;103112;-73
2022/09/14 08:04:03;;;;;;;4.87;4.47;;;;;;;24.43;38.00;95065.41;6162711;28;103210;-76
2022/09/14 08:07:08;;;;;;;5.13;4.73;;;;;;;24.35;38.12;95063.53;6162410;28;103327;-76
2022/09/14 08:10:11;;;;;;;5.00;4.37;;;;;;;24.36;37.55;95070.50;6155363;28;103333;-77
2022/09/14 08:13:16;;;;;;;4.90;4.00;;;;;;;24.39;37.80;95069.06;6162810;28;103693;-74
2022/09/14 08:16:20;;;;;;;5.07;4.57;;;;;;;24.39;37.54;95069.84;6164281;28;103407;-74
2022/09/14 08:19:23;;;;;;;5.17;3.73;;;;;;;24.45;37.34;95062.41;6166649;28;102926;-74
2022/09/14 08:22:26;;;;;;;5.93;4.30;;;;;;;24.46;37.30;95059.44;6159597;28;103072;-74
2022/09/14 08:25:30;;;;;;;6.40;4.23;;;;;;;24.45;37.19;95057.84;6166851;28;102857;-75
2022/09/14 08:28:35;;;;;;;5.43;3.63;;;;;;;24.50;37.07;95040.84;6167057;28;103315;-75
2022/09/14 08:31:38;;;;;;;4.27;3.87;;;;;;;24.45;37.26;95039.13;6165222;28;103481;-75
2022/09/14 08:34:41;;;;;;;6.50;4.20;;;;;;;24.46;37.33;95040.69;6160562;28;103861;-77
2022/09/14 08:37:46;;;;;;;6.37;3.70;;;;;;;24.49;37.15;95048.06;6165979;28;103098;-74
2022/09/14 08:40:50;;;;;;;4.33;3.93;;;;;;;24.55;37.11;95042.56;6166126;28;103308;-75
2022/09/14 08:43:55;;;;;;;5.10;3.90;;;;;;;24.60;37.00;95045.84;6159992;28;102925;-75
2022/09/14 08:47:02;;;;;;;4.50;4.10;;;;;;;24.61;37.24;95051.97;6166082;28;103469;-75
2022/09/14 08:50:13;;;;;;;4.30;3.73;;;;;;;24.63;37.02;95063.13;6165579;28;103387;-76
2022/09/14 08:53:16;;;;;;;4.83;4.43;;;;;;;24.65;37.14;95045.66;6165667;28;102916;-75
2022/09/14 08:56:24;;;;;;;5.73;5.23;;;;;;;24.73;36.95;95030.72;6157327;28;103464;-76
2022/09/14 08:59:42;;;;;;;5.03;3.93;;;;;;;24.73;37.32;95041.41;6166014;28;103016;-74
2022/09/14 09:03:07;;;;;;;5.77;4.67;;;;;;;24.71;37.15;95036.38;6165523;28;103195;-76
2022/09/14 09:06:15;;;;;;;6.27;4.60;;;;;;;24.74;37.32;95032.28;6162526;28;103833;-75
2022/09/14 09:09:24;;;;;;;4.97;4.43;;;;;;;24.75;37.37;95031.16;6162632;28;106020;-75
2022/09/14 09:12:36;;;;;;;4.67;4.23;;;;;;;24.76;37.17;95036.19;6165659;28;103781;-76
2022/09/14 09:15:46;;;;;;;4.70;4.30;;;;;;;24.75;36.97;95031.16;6166430;28;103800;-75
2022/09/14 09:18:53;;;;;;;5.20;4.73;;;;;;;24.80;37.43;95030.97;6156812;28;103373;-74
2022/09/14 09:21:57;;;;;;;5.13;4.63;;;;;;;24.80;37.51;95022.94;6164964;28;103246;-74
2022/09/14 09:25:04;;;;;;;4.50;4.13;;;;;;;24.79;37.22;95008.78;6165176;28;106817;-78
2022/09/14 09:28:11;;;;;;;4.83;4.40;;;;;;;24.78;37.26;95011.78;6164258;28;103173;-74
2022/09/14 09:31:19;;;;;;;4.80;4.50;;;;;;;24.77;37.35;95004.88;6158035;28;103385;-74
2022/09/14 09:34:27;;;;;;;5.30;4.80;;;;;;;24.76;37.70;95014.00;6164980;28;102997;-74
2022/09/14 09:37:34;;;;;;;5.30;4.73;;;;;;;24.73;37.31;95009.31;6165722;28;103060;-74
2022/09/14 09:40:43;;;;;;;4.90;4.50;;;;;;;24.72;37.31;95013.88;6158958;28;105185;-74
2022/09/14 09:44:00;;;;;;;5.17;4.70;;;;;;;24.77;37.06;95004.88;6165055;28;103085;-74
2022/09/14 09:47:06;;;;;;;6.03;5.10;;;;;;;24.78;37.04;95009.88;6147852;28;102820;-74
2022/09/14 09:50:20;;;;;;;6.03;5.43;;;;;;;24.79;37.44;95008.00;6164929;28;103202;-74
2022/09/14 09:53:24;;;;;;;4.87;4.47;;;;;;;24.76;37.61;95014.00;6156676;28;103161;-73
2022/09/14 09:56:32;;;;;;;5.20;4.70;;;;;;;24.74;37.74;95010.88;6164896;28;103268;-76
2022/09/14 09:59:37;;;;;;;8.83;5.70;;;;;;;24.74;37.24;94989.47;6163948;28;102921;-76
2022/09/14 10:02:42;;;;;;;10.63;6.37;;;;;;;24.81;37.57;94992.41;6161753;28;103691;-76
2022/09/14 10:05:45;;;;;;;6.60;5.80;;;;;;;24.80;37.17;94990.81;6160314;28;102865;-76
2022/09/14 10:08:49;;;;;;;13.30;6.30;;;;;;;24.76;37.19;94982.66;6164974;28;103424;-76
2022/09/14 10:11:58;;;;;;;11.07;6.23;;;;;;;24.78;37.30;94990.38;6164571;28;103148;-76
2022/09/14 10:15:17;;;;;;;8.50;5.40;;;;;;;24.71;37.48;94984.75;6156883;28;102832;-76
2022/09/14 10:18:23;;;;;;;7.73;5.87;;;;;;;24.66;37.62;94982.22;6164250;28;103224;-76
2022/09/14 10:21:27;;;;;;;8.03;5.40;;;;;;;24.71;37.66;94972.16;6164821;28;103021;-73
2022/09/14 10:24:33;;;;;;;7.87;4.80;;;;;;;24.71;37.13;94966.03;6164787;28;103250;-73
2022/09/14 10:27:41;;;;;;;7.00;4.77;;;;;;;24.71;37.59;94963.34;6157623;28;103091;-74
2022/09/14 10:30:49;;;;;;;7.43;5.17;;;;;;;24.70;37.25;94962.56;6164046;28;102980;-74
2022/09/14 10:33:56;;;;;;;8.80;5.93;;;;;;;24.71;37.39;94956.09;6164600;28;103144;-73
2022/09/14 10:37:11;;;;;;;6.43;5.83;;;;;;;24.68;37.67;94953.28;6160900;28;103673;-75
2022/09/14 10:40:18;;;;;;;6.57;5.97;;;;;;;24.66;37.92;94966.16;6160213;28;103756;-73
2022/09/14 10:43:33;;;;;;;7.43;6.73;;;;;;;24.65;37.70;94953.88;6164002;28;103291;-74
2022/09/14 10:46:44;;;;;;;7.73;7.03;;;;;;;24.62;37.90;94949.97;6163765;28;103119;-73
2022/09/14 10:50:03;;;;;;;8.43;6.63;;;;;;;24.60;37.95;94951.41;6156468;28;105533;-73
2022/09/14 10:53:20;;;;;;;9.27;8.37;;;;;;;24.56;38.16;94956.63;6164060;28;102789;-73
2022/09/14 10:56:28;;;;;;;11.80;10.70;;;;;;;24.56;38.09;94939.78;6163977;28;103102;-73
2022/09/14 10:59:38;;;;;;;12.93;11.83;;;;;;;24.55;37.83;94939.00;6160554;28;103057;-75
2022/09/14 11:02:56;;;;;;;14.37;12.57;;;;;;;24.56;38.09;94932.56;6158125;28;103015;-73
2022/09/14 11:06:13;;;;;;;14.37;12.87;;;;;;;24.52;38.13;94931.59;6163529;28;103088;-73
2022/09/14 11:09:23;;;;;;;13.90;12.60;;;;;;;24.48;38.30;94934.16;6163898;28;102903;-73
2022/09/14 11:12:35;;;;;;;15.63;14.17;;;;;;;24.48;38.23;94936.03;6155783;28;103369;-73
2022/09/14 11:15:47;;;;;;;16.77;15.17;;;;;;;24.49;38.30;94941.06;6163699;28;105639;-74
2022/09/14 11:18:57;;;;;;;18.43;16.83;;;;;;;24.43;38.50;94936.25;6163085;28;103644;-74
2022/09/14 11:22:10;;;;;;;18.90;16.47;;;;;;;24.44;38.43;94938.59;6161824;28;103744;-77
2022/09/14 11:25:17;;;;;;;18.53;16.83;;;;;;;24.45;38.58;94939.38;6159645;28;103389;-75
2022/09/14 11:28:25;;;;;;;18.43;16.60;;;;;;;24.41;38.16;94930.44;6163552;28;103854;-76
2022/09/14 11:31:34;;;;;;;18.90;17.20;;;;;;;24.43;38.36;94929.00;6163298;28;103244;-74
2022/09/14 11:34:42;;;;;;;18.87;17.20;;;;;;;24.47;38.21;94921.09;6155150;28;102837;-75
2022/09/14 11:37:53;;;;;;;14.97;13.53;;;;;;;24.48;37.89;94917.31;6164142;28;103254;-73
2022/09/14 11:41:01;;;;;;;16.87;15.37;;;;;;;24.49;38.08;94911.63;6162928;28;103223;-75
2022/09/14 11:44:12;;;;;;;14.53;13.33;;;;;;;24.50;37.89;94904.41;6163475;28;103526;-74
2022/09/14 11:47:18;;;;;;;14.70;13.33;;;;;;;24.48;37.94;94901.28;6156110;28;103506;-76
2022/09/14 11:50:25;;;;;;;14.80;13.60;;;;;;;24.49;38.03;94895.59;6163374;28;104840;-75
2022/09/14 11:53:32;;;;;;;15.20;13.90;;;;;;;24.49;38.08;94892.13;6166639;28;102957;-74
2022/09/14 11:56:39;;;;;;;14.70;13.50;;;;;;;24.49;37.98;94884.88;6163832;28;103266;-75
2022/09/14 11:59:51;;;;;;;14.03;12.93;;;;;;;24.48;38.17;94888.69;6164672;28;104388;-75
2022/09/14 12:03:13;;;;;;;13.90;12.70;;;;;;;24.47;38.07;94895.13;6166839;28;102856;-75
2022/09/14 12:06:52;;;;;;;13.10;12.00;;;;;;;24.47;37.97;94891.69;6166825;28;102920;-74
2022/09/14 12:10:18;;;;;;;14.07;12.77;;;;;;;24.46;38.24;94893.56;6159625;28;102818;-74
2022/09/14 12:13:22;;;;;;;15.10;13.70;;;;;;;24.46;38.15;94892.78;6166818;28;103624;-77
2022/09/14 12:16:26;;;;;;;15.00;13.60;;;;;;;24.45;38.12;94883.97;6167023;28;103177;-75
2022/09/14 12:19:36;;;;;;;13.97;12.70;;;;;;;24.44;38.24;94879.75;6159388;28;103550;-74
2022/09/14 12:22:40;;;;;;;13.87;12.70;;;;;;;24.45;38.23;94886.66;6165630;28;103156;-74
2022/09/14 12:25:58;;;;;;;13.80;12.60;;;;;;;24.42;38.33;94887.31;6165879;28;103405;-74
2022/09/14 12:29:25;;;;;;;13.40;12.20;;;;;;;24.42;38.49;94887.31;6166118;28;103459;-76
2022/09/14 12:32:49;;;;;;;13.00;11.90;;;;;;;24.42;38.32;94881.19;6158343;28;102822;-75
2022/09/14 12:35:53;;;;;;;13.10;12.00;;;;;;;24.40;38.43;94878.81;6162761;28;103172;-75
2022/09/14 12:39:19;;;;;;;11.47;10.47;;;;;;;24.41;38.55;94885.75;6165660;28;105433;-74
2022/09/14 12:42:31;;;;;;;11.77;10.77;;;;;;;24.39;38.79;94871.91;6159641;28;103598;-74
2022/09/14 12:45:51;;;;;;;11.43;10.43;;;;;;;24.40;38.36;94873.47;6165653;28;103228;-74
2022/09/14 12:48:57;;;;;;;11.37;10.37;;;;;;;24.41;38.34;94875.03;6166051;28;103261;-75
2022/09/14 12:52:19;;;;;;;10.23;9.23;;;;;;;24.40;38.39;94865.44;6165580;28;103494;-76
2022/09/14 12:55:51;;;;;;;9.60;8.80;;;;;;;24.39;38.30;94873.81;6159277;28;103697;-74
2022/09/14 12:59:07;;;;;;;9.20;8.47;;;;;;;24.36;38.28;94871.75;6165599;28;103503;-75
2022/09/14 13:02:40;;;;;;;9.33;8.57;;;;;;;24.37;38.00;94874.13;6165246;28;103859;-75
2022/09/14 13:05:45;;;;;;;8.50;7.80;;;;;;;24.36;38.33;94875.25;6159843;28;104330;-74
2022/09/14 13:08:52;;;;;;;8.97;8.30;;;;;;;24.39;38.13;94879.16;6166537;28;103258;-75
2022/09/14 13:11:59;;;;;;;8.23;7.53;;;;;;;24.36;38.06;94872.56;6166556;28;103417;-74
2022/09/14 13:15:06;;;;;;;8.00;7.30;;;;;;;24.38;37.95;94881.03;6166693;28;105957;-74
2022/09/14 13:18:28;;;;;;;6.70;6.10;;;;;;;24.40;37.87;94891.41;6160577;28;103437;-74
2022/09/14 13:21:31;;;;;;;6.73;6.23;;;;;;;24.38;37.85;94886.41;6165666;28;103093;-76
2022/09/14 13:24:42;;;;;;;7.10;6.50;;;;;;;24.36;37.72;94877.09;6165739;28;103030;-74
2022/09/14 13:27:49;;;;;;;6.43;5.93;;;;;;;24.38;37.77;94885.63;6159521;28;103527;-75
2022/09/14 13:31:00;;;;;;;6.10;5.60;;;;;;;24.38;37.52;94881.03;6165078;28;103071;-75
2022/09/14 13:34:04;;;;;;;6.40;5.90;;;;;;;24.38;37.78;94875.69;6165950;28;104968;-75
2022/09/14 13:37:13;;;;;;;6.53;5.87;;;;;;;24.36;37.80;94877.91;6165019;28;103347;-74
2022/09/14 13:40:17;;;;;;;5.93;5.33;;;;;;;24.34;37.98;94869.41;6158102;28;103349;-75
2022/09/14 13:43:22;;;;;;;5.20;4.73;;;;;;;24.39;37.75;94881.84;6164418;28;103637;-75
2022/09/14 13:46:28;;;;;;;6.63;5.03;;;;;;;24.38;37.53;94883.72;6165368;28;103422;-75
2022/09/14 13:49:34;;;;;;;5.77;5.23;;;;;;;24.38;37.71;94878.38;6164610;28;102804;-75
2022/09/14 13:52:41;;;;;;;4.27;3.90;;;;;;;24.38;37.65;94874.91;6159562;28;103436;-74
2022/09/14 13:56:22;;;;;;;5.13;4.73;;;;;;;24.37;37.68;94871.47;6165069;28;102781;-74
2022/09/14 13:59:25;;;;;;;3.87;3.57;;;;;;;24.38;37.89;94873.03;6164878;28;103310;-74
2022/09/14 14:02:34;;;;;;;4.67;4.27;;;;;;;24.37;37.55;94868.00;6158459;28;103194;-76
2022/09/14 14:05:42;;;;;;;4.03;3.73;;;;;;;24.37;37.64;94866.09;6165484;28;103304;-75
2022/09/14 14:08:53;;;;;;;4.37;4.07;;;;;;;24.36;37.82;94861.88;6164641;28;103607;-76
2022/09/14 14:11:57;;;;;;;4.13;3.83;;;;;;;24.36;37.68;94851.16;6164668;28;103243;-74
2022/09/14 14:15:02;;;;;;;3.97;3.67;;;;;;;24.37;37.95;94844.72;6156739;28;103195;-76
2022/09/14 14:18:41;;;;;;;4.17;3.87;;;;;;;24.37;37.75;94851.94;6164843;28;102934;-75
2022/09/14 14:21:44;;;;;;;3.87;3.57;;;;;;;24.38;37.82;94848.16;6164476;28;103344;-75
2022/09/14 14:24:49;;;;;;;3.50;3.30;;;;;;;24.36;37.77;94843.16;6157958;28;103293;-75
2022/09/14 14:28:17;;;;;;;3.50;3.30;;;;;;;24.36;37.76;94848.50;6164214;28;103065;-73
2022/09/14 14:31:25;;;;;;;4.00;3.70;;;;;;;24.37;37.92;94839.34;6164475;28;103757;-74
2022/09/14 14:34:30;;;;;;;6.50;3.47;;;;;;;24.34;37.91;94844.56;6164653;28;105342;-76